Ely, Nevada
Current Conditions -  °F | °C
As of 10:53 AM on Thursday 18 Dec 2014 (Local Time) from KELY Reporting Station
Few Clouds Few Clouds  
Wind Chill: 37°   Ceiling: Unl
Heat Index: 37°   Visibility: 10mi
Dew Point: 27°   Wind: 3mph
Humidity: 67%   Direction: NA
Pressure: 30.14"   Gusts: NA
Location:  39.25°N, 114.87°W
Report Text: KELY 181853Z AUTO VRB03KT 10SM FEW019 03/M03 A3014 RMK AO2 SLP211 T00281028
Loading
Personal Weather Stations






























Interactive Weather Map New forecast layout! Learn more

10-Day Weather Forecast

Advertisements
Track Severe Weather on mobile